sensor_id;sensor_type;location;lat;lon;timestamp;temperature;humidity
15105;DHT22;7653;48.994;9.212;2022-12-20T00:01:15;4.30;65.50
15105;DHT22;7653;48.994;9.212;2022-12-20T00:03:41;4.40;65.60
15105;DHT22;7653;48.994;9.212;2022-12-20T00:06:07;4.50;64.60
15105;DHT22;7653;48.994;9.212;2022-12-20T00:08:33;4.30;63.50
15105;DHT22;7653;48.994;9.212;2022-12-20T00:11:04;4.10;65.30
15105;DHT22;7653;48.994;9.212;2022-12-20T00:13:31;4.20;66.40
15105;DHT22;7653;48.994;9.212;2022-12-20T00:16:14;4.30;66.20
15105;DHT22;7653;48.994;9.212;2022-12-20T00:18:41;4.30;65.50
15105;DHT22;7653;48.994;9.212;2022-12-20T00:21:09;4.40;65.60
15105;DHT22;7653;48.994;9.212;2022-12-20T00:23:36;4.30;65.30
15105;DHT22;7653;48.994;9.212;2022-12-20T00:26:08;4.40;65.60
15105;DHT22;7653;48.994;9.212;2022-12-20T00:28:35;4.40;65.60
15105;DHT22;7653;48.994;9.212;2022-12-20T00:31:02;4.40;65.60
15105;DHT22;7653;48.994;9.212;2022-12-20T00:33:28;4.30;65.00
15105;DHT22;7653;48.994;9.212;2022-12-20T00:35:55;4.30;65.50
15105;DHT22;7653;48.994;9.212;2022-12-20T00:38:22;4.40;65.60
15105;DHT22;7653;48.994;9.212;2022-12-20T00:43:30;4.50;65.60
15105;DHT22;7653;48.994;9.212;2022-12-20T00:45:56;4.50;63.60
15105;DHT22;7653;48.994;9.212;2022-12-20T00:48:23;4.50;64.50
15105;DHT22;7653;48.994;9.212;2022-12-20T00:50:49;4.50;63.40
15105;DHT22;7653;48.994;9.212;2022-12-20T00:53:15;4.30;63.40
15105;DHT22;7653;48.994;9.212;2022-12-20T00:55:43;4.10;65.30
15105;DHT22;7653;48.994;9.212;2022-12-20T00:58:11;4.10;65.30
15105;DHT22;7653;48.994;9.212;2022-12-20T01:00:38;4.20;65.40
15105;DHT22;7653;48.994;9.212;2022-12-20T01:03:04;4.30;65.50
15105;DHT22;7653;48.994;9.212;2022-12-20T01:05:30;4.30;65.50
15105;DHT22;7653;48.994;9.212;2022-12-20T01:07:55;4.20;65.40
15105;DHT22;7653;48.994;9.212;2022-12-20T01:10:21;4.20;65.40
15105;DHT22;7653;48.994;9.212;2022-12-20T01:12:47;4.10;65.30
15105;DHT22;7653;48.994;9.212;2022-12-20T01:15:14;4.10;66.70
15105;DHT22;7653;48.994;9.212;2022-12-20T01:17:40;4.20;67.50
15105;DHT22;7653;48.994;9.212;2022-12-20T01:20:06;4.10;67.70
15105;DHT22;7653;48.994;9.212;2022-12-20T01:22:32;4.10;67.60
15105;DHT22;7653;48.994;9.212;2022-12-20T01:24:59;4.20;67.20
15105;DHT22;7653;48.994;9.212;2022-12-20T01:27:25;4.20;67.50
15105;DHT22;7653;48.994;9.212;2022-12-20T01:29:50;4.20;66.40
15105;DHT22;7653;48.994;9.212;2022-12-20T01:32:16;4.30;67.00
15105;DHT22;7653;48.994;9.212;2022-12-20T01:34:42;4.40;67.40
15105;DHT22;7653;48.994;9.212;2022-12-20T01:37:07;4.40;65.60
15105;DHT22;7653;48.994;9.212;2022-12-20T01:39:33;4.30;65.60
15105;DHT22;7653;48.994;9.212;2022-12-20T01:41:59;4.30;66.50
15105;DHT22;7653;48.994;9.212;2022-12-20T01:46:51;4.20;67.10
15105;DHT22;7653;48.994;9.212;2022-12-20T01:49:30;4.20;67.70
15105;DHT22;7653;48.994;9.212;2022-12-20T01:52:08;4.20;68.60
15105;DHT22;7653;48.994;9.212;2022-12-20T01:54:49;4.30;68.40
15105;DHT22;7653;48.994;9.212;2022-12-20T01:57:28;4.40;67.70
15105;DHT22;7653;48.994;9.212;2022-12-20T01:59:56;4.40;66.00
15105;DHT22;7653;48.994;9.212;2022-12-20T02:02:23;4.40;65.60
15105;DHT22;7653;48.994;9.212;2022-12-20T02:04:49;4.30;65.50
15105;DHT22;7653;48.994;9.212;2022-12-20T02:07:23;4.20;66.60
15105;DHT22;7653;48.994;9.212;2022-12-20T02:09:52;4.20;67.10
15105;DHT22;7653;48.994;9.212;2022-12-20T02:12:23;4.30;67.00
15105;DHT22;7653;48.994;9.212;2022-12-20T02:25:50;4.20;65.90
15105;DHT22;7653;48.994;9.212;2022-12-20T02:30:59;4.00;66.80
15105;DHT22;7653;48.994;9.212;2022-12-20T02:33:28;4.00;67.20
15105;DHT22;7653;48.994;9.212;2022-12-20T02:35:54;4.10;67.70
15105;DHT22;7653;48.994;9.212;2022-12-20T02:40:57;4.20;67.50
15105;DHT22;7653;48.994;9.212;2022-12-20T02:43:23;4.30;66.30
15105;DHT22;7653;48.994;9.212;2022-12-20T02:46:10;4.20;65.40
15105;DHT22;7653;48.994;9.212;2022-12-20T02:48:38;4.20;65.40
15105;DHT22;7653;48.994;9.212;2022-12-20T02:51:05;4.10;65.70
15105;DHT22;7653;48.994;9.212;2022-12-20T02:53:33;4.00;67.30
15105;DHT22;7653;48.994;9.212;2022-12-20T03:01:10;3.90;68.90
15105;DHT22;7653;48.994;9.212;2022-12-20T03:03:37;3.90;69.00
15105;DHT22;7653;48.994;9.212;2022-12-20T03:06:03;3.80;69.10
15105;DHT22;7653;48.994;9.212;2022-12-20T03:08:29;3.90;70.60
15105;DHT22;7653;48.994;9.212;2022-12-20T03:10:55;4.00;70.20
15105;DHT22;7653;48.994;9.212;2022-12-20T03:13:22;4.00;69.40
15105;DHT22;7653;48.994;9.212;2022-12-20T03:15:49;4.10;68.70
15105;DHT22;7653;48.994;9.212;2022-12-20T03:18:14;4.10;68.00
15105;DHT22;7653;48.994;9.212;2022-12-20T03:20:40;4.20;67.80
15105;DHT22;7653;48.994;9.212;2022-12-20T03:23:06;4.30;67.20
15105;DHT22;7653;48.994;9.212;2022-12-20T03:25:32;4.10;65.30
15105;DHT22;7653;48.994;9.212;2022-12-20T03:27:58;4.00;66.50
15105;DHT22;7653;48.994;9.212;2022-12-20T03:30:24;3.90;66.70
15105;DHT22;7653;48.994;9.212;2022-12-20T03:32:49;3.90;68.70
15105;DHT22;7653;48.994;9.212;2022-12-20T03:35:15;3.90;69.10
15105;DHT22;7653;48.994;9.212;2022-12-20T03:37:42;4.00;69.70
15105;DHT22;7653;48.994;9.212;2022-12-20T03:40:08;4.00;68.90
15105;DHT22;7653;48.994;9.212;2022-12-20T03:42:36;3.80;68.70
15105;DHT22;7653;48.994;9.212;2022-12-20T03:45:02;3.90;70.20
15105;DHT22;7653;48.994;9.212;2022-12-20T03:47:28;3.90;69.80
15105;DHT22;7653;48.994;9.212;2022-12-20T03:49:53;3.90;69.40
15105;DHT22;7653;48.994;9.212;2022-12-20T03:52:19;3.90;69.80
15105;DHT22;7653;48.994;9.212;2022-12-20T03:54:44;3.80;69.70
15105;DHT22;7653;48.994;9.212;2022-12-20T03:57:10;3.90;71.30
15105;DHT22;7653;48.994;9.212;2022-12-20T03:59:36;4.00;70.20
15105;DHT22;7653;48.994;9.212;2022-12-20T04:02:02;4.00;70.30
15105;DHT22;7653;48.994;9.212;2022-12-20T04:04:28;4.00;70.70
15105;DHT22;7653;48.994;9.212;2022-12-20T04:06:53;4.20;70.30
15105;DHT22;7653;48.994;9.212;2022-12-20T04:09:19;4.30;69.90
15105;DHT22;7653;48.994;9.212;2022-12-20T04:11:45;4.20;69.10
15105;DHT22;7653;48.994;9.212;2022-12-20T04:14:10;4.10;68.00
15105;DHT22;7653;48.994;9.212;2022-12-20T04:16:36;4.10;68.10
15105;DHT22;7653;48.994;9.212;2022-12-20T04:19:01;4.00;69.50
15105;DHT22;7653;48.994;9.212;2022-12-20T04:21:29;4.10;70.90
15105;DHT22;7653;48.994;9.212;2022-12-20T04:23:57;4.10;69.80
15105;DHT22;7653;48.994;9.212;2022-12-20T04:26:23;4.10;70.00
15105;DHT22;7653;48.994;9.212;2022-12-20T04:28:49;4.20;69.80
15105;DHT22;7653;48.994;9.212;2022-12-20T04:31:15;4.20;69.70
15105;DHT22;7653;48.994;9.212;2022-12-20T04:33:40;4.30;68.90
15105;DHT22;7653;48.994;9.212;2022-12-20T04:36:06;4.30;69.70
15105;DHT22;7653;48.994;9.212;2022-12-20T04:38:32;4.40;68.50
15105;DHT22;7653;48.994;9.212;2022-12-20T04:40:58;4.40;68.30
15105;DHT22;7653;48.994;9.212;2022-12-20T04:43:24;4.40;69.30
15105;DHT22;7653;48.994;9.212;2022-12-20T04:45:52;4.40;68.90
15105;DHT22;7653;48.994;9.212;2022-12-20T04:48:22;4.40;69.80
15105;DHT22;7653;48.994;9.212;2022-12-20T04:50:54;4.50;68.80
15105;DHT22;7653;48.994;9.212;2022-12-20T04:53:22;4.40;67.80
15105;DHT22;7653;48.994;9.212;2022-12-20T04:56:06;4.40;68.50
15105;DHT22;7653;48.994;9.212;2022-12-20T04:58:32;4.30;69.00
15105;DHT22;7653;48.994;9.212;2022-12-20T05:00:58;4.40;70.10
15105;DHT22;7653;48.994;9.212;2022-12-20T05:03:25;4.50;69.30
15105;DHT22;7653;48.994;9.212;2022-12-20T05:05:51;4.60;68.90
15105;DHT22;7653;48.994;9.212;2022-12-20T05:08:17;4.60;68.80
15105;DHT22;7653;48.994;9.212;2022-12-20T05:10:43;4.70;68.00
15105;DHT22;7653;48.994;9.212;2022-12-20T05:13:09;4.70;67.10
15105;DHT22;7653;48.994;9.212;2022-12-20T05:15:35;4.60;66.40
15105;DHT22;7653;48.994;9.212;2022-12-20T05:18:01;4.60;67.00
15105;DHT22;7653;48.994;9.212;2022-12-20T05:20:28;4.70;67.30
15105;DHT22;7653;48.994;9.212;2022-12-20T05:22:54;4.80;66.80
15105;DHT22;7653;48.994;9.212;2022-12-20T05:25:43;4.90;66.00
15105;DHT22;7653;48.994;9.212;2022-12-20T05:28:27;4.80;65.90
15105;DHT22;7653;48.994;9.212;2022-12-20T05:30:54;4.70;65.80
15105;DHT22;7653;48.994;9.212;2022-12-20T05:33:20;4.80;65.90
15105;DHT22;7653;48.994;9.212;2022-12-20T05:35:46;4.80;65.90
15105;DHT22;7653;48.994;9.212;2022-12-20T05:38:12;4.90;66.00
15105;DHT22;7653;48.994;9.212;2022-12-20T05:40:39;4.80;66.00
15105;DHT22;7653;48.994;9.212;2022-12-20T05:43:05;4.70;64.40
15105;DHT22;7653;48.994;9.212;2022-12-20T05:45:32;4.60;65.70
15105;DHT22;7653;48.994;9.212;2022-12-20T05:47:59;4.60;65.80
15105;DHT22;7653;48.994;9.212;2022-12-20T05:50:25;4.70;66.10
15105;DHT22;7653;48.994;9.212;2022-12-20T05:52:51;4.80;65.90
15105;DHT22;7653;48.994;9.212;2022-12-20T05:55:16;4.90;65.50
15105;DHT22;7653;48.994;9.212;2022-12-20T05:57:42;4.90;65.00
15105;DHT22;7653;48.994;9.212;2022-12-20T06:00:09;4.90;65.20
15105;DHT22;7653;48.994;9.212;2022-12-20T06:02:34;4.90;65.10
15105;DHT22;7653;48.994;9.212;2022-12-20T06:05:00;5.00;66.00
15105;DHT22;7653;48.994;9.212;2022-12-20T06:07:27;4.80;64.20
15105;DHT22;7653;48.994;9.212;2022-12-20T06:09:54;4.70;64.80
15105;DHT22;7653;48.994;9.212;2022-12-20T06:12:20;4.80;65.60
15105;DHT22;7653;48.994;9.212;2022-12-20T06:14:47;4.60;65.80
15105;DHT22;7653;48.994;9.212;2022-12-20T06:17:13;4.60;65.70
15105;DHT22;7653;48.994;9.212;2022-12-20T06:19:39;4.50;68.00
15105;DHT22;7653;48.994;9.212;2022-12-20T06:22:06;4.50;68.20
15105;DHT22;7653;48.994;9.212;2022-12-20T06:24:33;4.50;69.20
15105;DHT22;7653;48.994;9.212;2022-12-20T06:26:59;4.50;69.50
15105;DHT22;7653;48.994;9.212;2022-12-20T06:29:25;4.50;68.30
15105;DHT22;7653;48.994;9.212;2022-12-20T06:31:50;4.50;68.50
15105;DHT22;7653;48.994;9.212;2022-12-20T06:34:17;4.60;69.00
15105;DHT22;7653;48.994;9.212;2022-12-20T06:36:43;4.50;68.30
15105;DHT22;7653;48.994;9.212;2022-12-20T06:39:09;4.50;68.90
15105;DHT22;7653;48.994;9.212;2022-12-20T06:41:35;4.60;69.70
15105;DHT22;7653;48.994;9.212;2022-12-20T06:44:01;4.50;69.40
15105;DHT22;7653;48.994;9.212;2022-12-20T06:46:27;4.40;69.60
15105;DHT22;7653;48.994;9.212;2022-12-20T06:48:55;4.40;69.50
15105;DHT22;7653;48.994;9.212;2022-12-20T06:51:21;4.40;69.50
15105;DHT22;7653;48.994;9.212;2022-12-20T06:53:46;4.30;70.20
15105;DHT22;7653;48.994;9.212;2022-12-20T06:56:12;4.40;71.00
15105;DHT22;7653;48.994;9.212;2022-12-20T06:58:38;4.40;71.30
15105;DHT22;7653;48.994;9.212;2022-12-20T07:01:03;4.40;71.40
15105;DHT22;7653;48.994;9.212;2022-12-20T07:03:30;4.40;71.20
15105;DHT22;7653;48.994;9.212;2022-12-20T07:05:56;4.50;72.40
15105;DHT22;7653;48.994;9.212;2022-12-20T07:08:22;4.50;71.00
15105;DHT22;7653;48.994;9.212;2022-12-20T07:10:48;4.50;71.00
15105;DHT22;7653;48.994;9.212;2022-12-20T07:13:15;4.50;70.90
15105;DHT22;7653;48.994;9.212;2022-12-20T07:15:40;4.60;70.50
15105;DHT22;7653;48.994;9.212;2022-12-20T07:18:06;4.60;69.70
15105;DHT22;7653;48.994;9.212;2022-12-20T07:20:32;4.70;69.30
15105;DHT22;7653;48.994;9.212;2022-12-20T07:22:57;4.60;68.70
15105;DHT22;7653;48.994;9.212;2022-12-20T07:25:23;4.50;69.00
15105;DHT22;7653;48.994;9.212;2022-12-20T07:27:50;4.60;69.60
15105;DHT22;7653;48.994;9.212;2022-12-20T07:30:18;4.50;69.90
15105;DHT22;7653;48.994;9.212;2022-12-20T07:32:44;4.50;69.20
15105;DHT22;7653;48.994;9.212;2022-12-20T07:35:10;4.50;69.60
15105;DHT22;7653;48.994;9.212;2022-12-20T07:37:36;4.50;68.80
15105;DHT22;7653;48.994;9.212;2022-12-20T07:40:02;4.50;68.90
15105;DHT22;7653;48.994;9.212;2022-12-20T07:42:28;4.50;69.40
15105;DHT22;7653;48.994;9.212;2022-12-20T07:44:54;4.50;68.60
15105;DHT22;7653;48.994;9.212;2022-12-20T07:47:19;4.50;69.10
15105;DHT22;7653;48.994;9.212;2022-12-20T07:49:45;4.40;69.90
15105;DHT22;7653;48.994;9.212;2022-12-20T07:52:12;4.40;69.60
15105;DHT22;7653;48.994;9.212;2022-12-20T07:54:51;4.60;71.00
15105;DHT22;7653;48.994;9.212;2022-12-20T07:57:31;4.70;69.40
15105;DHT22;7653;48.994;9.212;2022-12-20T07:59:59;4.90;67.60
15105;DHT22;7653;48.994;9.212;2022-12-20T08:02:37;4.90;66.00
15105;DHT22;7653;48.994;9.212;2022-12-20T08:05:07;4.90;66.00
15105;DHT22;7653;48.994;9.212;2022-12-20T08:07:34;5.00;66.10
15105;DHT22;7653;48.994;9.212;2022-12-20T08:10:00;5.00;66.10
15105;DHT22;7653;48.994;9.212;2022-12-20T08:12:29;4.90;66.00
15105;DHT22;7653;48.994;9.212;2022-12-20T08:14:56;4.90;66.00
15105;DHT22;7653;48.994;9.212;2022-12-20T08:17:23;5.00;67.10
15105;DHT22;7653;48.994;9.212;2022-12-20T08:19:48;5.10;66.20
15105;DHT22;7653;48.994;9.212;2022-12-20T08:22:17;4.90;66.90
15105;DHT22;7653;48.994;9.212;2022-12-20T08:24:44;4.80;68.80
15105;DHT22;7653;48.994;9.212;2022-12-20T08:27:10;4.80;71.40
15105;DHT22;7653;48.994;9.212;2022-12-20T08:29:37;4.90;72.60
15105;DHT22;7653;48.994;9.212;2022-12-20T08:32:03;4.90;73.00
15105;DHT22;7653;48.994;9.212;2022-12-20T08:34:28;5.10;72.80
15105;DHT22;7653;48.994;9.212;2022-12-20T08:36:54;5.20;72.00
15105;DHT22;7653;48.994;9.212;2022-12-20T08:39:20;5.30;71.30
15105;DHT22;7653;48.994;9.212;2022-12-20T08:41:46;5.10;68.70
15105;DHT22;7653;48.994;9.212;2022-12-20T08:44:13;5.20;67.90
15105;DHT22;7653;48.994;9.212;2022-12-20T08:46:40;5.20;67.00
15105;DHT22;7653;48.994;9.212;2022-12-20T08:49:06;5.30;66.40
15105;DHT22;7653;48.994;9.212;2022-12-20T08:51:32;5.50;66.50
15105;DHT22;7653;48.994;9.212;2022-12-20T08:53:58;5.50;65.90
15105;DHT22;7653;48.994;9.212;2022-12-20T08:56:24;5.50;66.20
15105;DHT22;7653;48.994;9.212;2022-12-20T08:58:49;5.50;65.50
15105;DHT22;7653;48.994;9.212;2022-12-20T09:01:17;5.60;64.70
15105;DHT22;7653;48.994;9.212;2022-12-20T09:03:43;5.70;64.60
15105;DHT22;7653;48.994;9.212;2022-12-20T09:06:12;5.90;64.50
15105;DHT22;7653;48.994;9.212;2022-12-20T09:08:40;6.10;63.20
15105;DHT22;7653;48.994;9.212;2022-12-20T09:11:17;6.20;62.30
15105;DHT22;7653;48.994;9.212;2022-12-20T09:13:45;6.40;60.70
15105;DHT22;7653;48.994;9.212;2022-12-20T09:16:13;6.50;59.50
15105;DHT22;7653;48.994;9.212;2022-12-20T09:18:39;6.60;58.00
15105;DHT22;7653;48.994;9.212;2022-12-20T09:21:07;6.70;58.10
15105;DHT22;7653;48.994;9.212;2022-12-20T09:23:34;6.80;58.10
15105;DHT22;7653;48.994;9.212;2022-12-20T09:26:02;7.00;56.20
15105;DHT22;7653;48.994;9.212;2022-12-20T09:28:29;6.90;56.50
15105;DHT22;7653;48.994;9.212;2022-12-20T09:31:02;7.00;56.10
15105;DHT22;7653;48.994;9.212;2022-12-20T09:33:29;7.10;54.90
15105;DHT22;7653;48.994;9.212;2022-12-20T09:35:56;7.20;54.40
15105;DHT22;7653;48.994;9.212;2022-12-20T09:38:21;7.30;53.40
15105;DHT22;7653;48.994;9.212;2022-12-20T09:40:50;7.30;53.90
15105;DHT22;7653;48.994;9.212;2022-12-20T09:43:16;7.40;52.60
15105;DHT22;7653;48.994;9.212;2022-12-20T09:45:44;7.50;52.20
15105;DHT22;7653;48.994;9.212;2022-12-20T09:48:36;7.60;52.00
15105;DHT22;7653;48.994;9.212;2022-12-20T09:54:35;7.60;51.70
15105;DHT22;7653;48.994;9.212;2022-12-20T09:57:39;7.60;51.70
15105;DHT22;7653;48.994;9.212;2022-12-20T09:59:56;7.60;51.20
15105;DHT22;7653;48.994;9.212;2022-12-20T10:02:24;7.60;51.50
15105;DHT22;7653;48.994;9.212;2022-12-20T10:04:51;7.70;51.40
15105;DHT22;7653;48.994;9.212;2022-12-20T10:13:04;7.60;52.40
15105;DHT22;7653;48.994;9.212;2022-12-20T10:15:48;7.70;52.10
15105;DHT22;7653;48.994;9.212;2022-12-20T10:24:01;7.70;51.30
15105;DHT22;7653;48.994;9.212;2022-12-20T10:26:28;7.80;51.70
15105;DHT22;7653;48.994;9.212;2022-12-20T10:28:53;7.80;51.50
15105;DHT22;7653;48.994;9.212;2022-12-20T10:31:19;7.90;52.50
15105;DHT22;7653;48.994;9.212;2022-12-20T10:33:45;7.90;50.70
15105;DHT22;7653;48.994;9.212;2022-12-20T10:36:31;7.90;50.30
15105;DHT22;7653;48.994;9.212;2022-12-20T10:38:59;7.90;50.60
15105;DHT22;7653;48.994;9.212;2022-12-20T10:41:48;8.00;51.20
15105;DHT22;7653;48.994;9.212;2022-12-20T10:44:23;8.20;49.90
15105;DHT22;7653;48.994;9.212;2022-12-20T10:49:31;8.40;48.90
15105;DHT22;7653;48.994;9.212;2022-12-20T10:52:07;8.40;48.30
15105;DHT22;7653;48.994;9.212;2022-12-20T10:54:38;8.40;48.50
15105;DHT22;7653;48.994;9.212;2022-12-20T11:07:26;8.10;49.80
15105;DHT22;7653;48.994;9.212;2022-12-20T11:09:58;8.20;49.90
15105;DHT22;7653;48.994;9.212;2022-12-20T11:12:24;8.20;49.20
15105;DHT22;7653;48.994;9.212;2022-12-20T11:14:49;8.30;49.90
15105;DHT22;7653;48.994;9.212;2022-12-20T11:17:43;8.30;49.90
15105;DHT22;7653;48.994;9.212;2022-12-20T11:52:04;8.40;49.10
15105;DHT22;7653;48.994;9.212;2022-12-20T11:54:35;8.50;49.20
15105;DHT22;7653;48.994;9.212;2022-12-20T11:57:15;8.60;49.20
15105;DHT22;7653;48.994;9.212;2022-12-20T12:05:13;8.30;49.90
15105;DHT22;7653;48.994;9.212;2022-12-20T12:07:40;8.30;49.90
15105;DHT22;7653;48.994;9.212;2022-12-20T12:10:18;8.40;49.10
15105;DHT22;7653;48.994;9.212;2022-12-20T12:13:10;8.60;48.20
15105;DHT22;7653;48.994;9.212;2022-12-20T12:16:04;8.50;48.30
15105;DHT22;7653;48.994;9.212;2022-12-20T12:18:32;8.40;50.00
15105;DHT22;7653;48.994;9.212;2022-12-20T12:23:38;8.20;50.90
15105;DHT22;7653;48.994;9.212;2022-12-20T12:26:29;8.30;51.00
15105;DHT22;7653;48.994;9.212;2022-12-20T12:29:05;8.40;51.20
15105;DHT22;7653;48.994;9.212;2022-12-20T12:32:01;8.50;50.10
15105;DHT22;7653;48.994;9.212;2022-12-20T12:47:42;8.60;47.90
15105;DHT22;7653;48.994;9.212;2022-12-20T12:50:30;8.70;47.90
15105;DHT22;7653;48.994;9.212;2022-12-20T13:09:16;8.80;47.10
15105;DHT22;7653;48.994;9.212;2022-12-20T13:11:43;8.80;47.20
15105;DHT22;7653;48.994;9.212;2022-12-20T13:17:33;9.00;45.70
15105;DHT22;7653;48.994;9.212;2022-12-20T13:19:50;9.10;45.30
15105;DHT22;7653;48.994;9.212;2022-12-20T13:29:55;9.10;44.80
15105;DHT22;7653;48.994;9.212;2022-12-20T13:32:55;9.00;45.30
15105;DHT22;7653;48.994;9.212;2022-12-20T13:40:45;8.80;46.70
15105;DHT22;7653;48.994;9.212;2022-12-20T13:45:46;8.90;46.30
15105;DHT22;7653;48.994;9.212;2022-12-20T13:48:15;8.90;45.70
15105;DHT22;7653;48.994;9.212;2022-12-20T13:50:49;8.90;45.70
15105;DHT22;7653;48.994;9.212;2022-12-20T13:53:19;8.90;45.60
15105;DHT22;7653;48.994;9.212;2022-12-20T13:55:45;8.90;45.60
15105;DHT22;7653;48.994;9.212;2022-12-20T13:58:26;8.80;45.80
15105;DHT22;7653;48.994;9.212;2022-12-20T14:00:53;8.80;46.80
15105;DHT22;7653;48.994;9.212;2022-12-20T14:05:44;8.90;46.50
15105;DHT22;7653;48.994;9.212;2022-12-20T14:08:30;8.90;45.60
15105;DHT22;7653;48.994;9.212;2022-12-20T14:13:36;8.90;45.60
15105;DHT22;7653;48.994;9.212;2022-12-20T14:16:18;8.90;46.20
15105;DHT22;7653;48.994;9.212;2022-12-20T14:19:05;8.80;46.60
15105;DHT22;7653;48.994;9.212;2022-12-20T14:21:34;8.90;46.80
15105;DHT22;7653;48.994;9.212;2022-12-20T14:24:02;8.80;47.20
15105;DHT22;7653;48.994;9.212;2022-12-20T14:26:32;8.80;47.20
15105;DHT22;7653;48.994;9.212;2022-12-20T14:29:00;8.80;47.50
15105;DHT22;7653;48.994;9.212;2022-12-20T14:31:39;8.80;47.30
15105;DHT22;7653;48.994;9.212;2022-12-20T14:36:42;8.80;47.50
15105;DHT22;7653;48.994;9.212;2022-12-20T14:39:33;8.70;47.30
15105;DHT22;7653;48.994;9.212;2022-12-20T14:44:32;8.90;46.60
15105;DHT22;7653;48.994;9.212;2022-12-20T14:47:23;8.90;46.70
15105;DHT22;7653;48.994;9.212;2022-12-20T14:50:19;8.90;46.10
15105;DHT22;7653;48.994;9.212;2022-12-20T14:52:46;9.00;45.80
15105;DHT22;7653;48.994;9.212;2022-12-20T14:55:24;9.00;45.80
15105;DHT22;7653;48.994;9.212;2022-12-20T14:57:54;8.90;45.70
15105;DHT22;7653;48.994;9.212;2022-12-20T15:00:24;8.90;45.60
15105;DHT22;7653;48.994;9.212;2022-12-20T15:13:45;8.80;46.50
15105;DHT22;7653;48.994;9.212;2022-12-20T15:18:50;8.70;46.40
15105;DHT22;7653;48.994;9.212;2022-12-20T15:21:39;8.70;46.30
15105;DHT22;7653;48.994;9.212;2022-12-20T15:24:19;8.70;46.60
15105;DHT22;7653;48.994;9.212;2022-12-20T15:26:47;8.70;46.80
15105;DHT22;7653;48.994;9.212;2022-12-20T15:29:17;8.50;48.20
15105;DHT22;7653;48.994;9.212;2022-12-20T15:31:44;8.50;47.60
15105;DHT22;7653;48.994;9.212;2022-12-20T15:34:33;8.60;47.90
15105;DHT22;7653;48.994;9.212;2022-12-20T15:37:00;8.60;48.10
15105;DHT22;7653;48.994;9.212;2022-12-20T15:39:27;8.60;47.50
15105;DHT22;7653;48.994;9.212;2022-12-20T15:41:54;8.60;47.10
15105;DHT22;7653;48.994;9.212;2022-12-20T15:44:24;8.60;47.00
15105;DHT22;7653;48.994;9.212;2022-12-20T15:46:50;8.60;47.50
15105;DHT22;7653;48.994;9.212;2022-12-20T15:49:23;8.60;47.80
15105;DHT22;7653;48.994;9.212;2022-12-20T15:51:52;8.50;48.30
15105;DHT22;7653;48.994;9.212;2022-12-20T15:56:58;8.60;48.20
15105;DHT22;7653;48.994;9.212;2022-12-20T15:59:27;8.60;48.00
15105;DHT22;7653;48.994;9.212;2022-12-20T16:01:53;8.60;47.80
15105;DHT22;7653;48.994;9.212;2022-12-20T16:04:20;8.60;47.80
15105;DHT22;7653;48.994;9.212;2022-12-20T16:06:48;8.50;47.60
15105;DHT22;7653;48.994;9.212;2022-12-20T16:09:14;8.40;48.20
15105;DHT22;7653;48.994;9.212;2022-12-20T16:11:40;8.40;48.70
15105;DHT22;7653;48.994;9.212;2022-12-20T16:14:15;8.40;48.40
15105;DHT22;7653;48.994;9.212;2022-12-20T16:16:42;8.40;48.10
15105;DHT22;7653;48.994;9.212;2022-12-20T16:19:09;8.40;48.60
15105;DHT22;7653;48.994;9.212;2022-12-20T16:21:48;8.50;48.80
15105;DHT22;7653;48.994;9.212;2022-12-20T16:24:17;8.40;48.80
15105;DHT22;7653;48.994;9.212;2022-12-20T16:26:43;8.50;48.50
15105;DHT22;7653;48.994;9.212;2022-12-20T16:29:10;8.50;48.40
15105;DHT22;7653;48.994;9.212;2022-12-20T16:31:38;8.50;48.50
15105;DHT22;7653;48.994;9.212;2022-12-20T16:34:08;8.40;48.40
15105;DHT22;7653;48.994;9.212;2022-12-20T16:36:34;8.40;48.70
15105;DHT22;7653;48.994;9.212;2022-12-20T16:39:00;8.40;48.10
15105;DHT22;7653;48.994;9.212;2022-12-20T16:41:28;8.40;48.70
15105;DHT22;7653;48.994;9.212;2022-12-20T16:43:56;8.40;49.00
15105;DHT22;7653;48.994;9.212;2022-12-20T16:46:25;8.40;48.70
15105;DHT22;7653;48.994;9.212;2022-12-20T16:48:52;8.50;48.40
15105;DHT22;7653;48.994;9.212;2022-12-20T16:51:31;8.40;48.10
15105;DHT22;7653;48.994;9.212;2022-12-20T16:54:02;8.40;48.30
15105;DHT22;7653;48.994;9.212;2022-12-20T16:56:28;8.40;48.10
15105;DHT22;7653;48.994;9.212;2022-12-20T16:58:55;8.30;48.90
15105;DHT22;7653;48.994;9.212;2022-12-20T17:01:34;8.20;49.90
15105;DHT22;7653;48.994;9.212;2022-12-20T17:04:01;8.10;49.80
15105;DHT22;7653;48.994;9.212;2022-12-20T17:06:27;8.00;50.60
15105;DHT22;7653;48.994;9.212;2022-12-20T17:08:54;8.10;51.10
15105;DHT22;7653;48.994;9.212;2022-12-20T17:11:29;8.10;50.90
15105;DHT22;7653;48.994;9.212;2022-12-20T17:13:57;8.20;51.10
15105;DHT22;7653;48.994;9.212;2022-12-20T17:16:23;8.30;49.90
15105;DHT22;7653;48.994;9.212;2022-12-20T17:18:54;8.30;49.90
15105;DHT22;7653;48.994;9.212;2022-12-20T17:21:37;8.30;49.30
15105;DHT22;7653;48.994;9.212;2022-12-20T17:24:04;8.30;49.40
15105;DHT22;7653;48.994;9.212;2022-12-20T17:26:31;8.30;49.90
15105;DHT22;7653;48.994;9.212;2022-12-20T17:28:57;8.30;48.80
15105;DHT22;7653;48.994;9.212;2022-12-20T17:33:50;8.30;49.30
15105;DHT22;7653;48.994;9.212;2022-12-20T17:36:17;8.30;49.00
15105;DHT22;7653;48.994;9.212;2022-12-20T17:38:43;8.30;49.40
15105;DHT22;7653;48.994;9.212;2022-12-20T17:41:29;8.30;49.40
15105;DHT22;7653;48.994;9.212;2022-12-20T17:43:57;8.30;49.10
15105;DHT22;7653;48.994;9.212;2022-12-20T17:46:24;8.30;48.40
15105;DHT22;7653;48.994;9.212;2022-12-20T17:48:50;8.30;49.20
15105;DHT22;7653;48.994;9.212;2022-12-20T17:51:25;8.30;48.90
15105;DHT22;7653;48.994;9.212;2022-12-20T17:53:53;8.30;48.90
15105;DHT22;7653;48.994;9.212;2022-12-20T17:56:25;8.30;48.60
15105;DHT22;7653;48.994;9.212;2022-12-20T17:58:52;8.30;48.30
15105;DHT22;7653;48.994;9.212;2022-12-20T18:01:24;8.30;48.80
15105;DHT22;7653;48.994;9.212;2022-12-20T18:03:52;8.30;48.40
15105;DHT22;7653;48.994;9.212;2022-12-20T18:06:19;8.20;48.70
15105;DHT22;7653;48.994;9.212;2022-12-20T18:08:49;8.10;49.80
15105;DHT22;7653;48.994;9.212;2022-12-20T18:11:15;8.20;49.90
15105;DHT22;7653;48.994;9.212;2022-12-20T18:13:42;8.10;49.80
15105;DHT22;7653;48.994;9.212;2022-12-20T18:16:10;8.10;49.80
15105;DHT22;7653;48.994;9.212;2022-12-20T18:18:36;8.10;49.80
15105;DHT22;7653;48.994;9.212;2022-12-20T18:21:10;8.10;49.80
15105;DHT22;7653;48.994;9.212;2022-12-20T18:23:37;8.00;49.70
15105;DHT22;7653;48.994;9.212;2022-12-20T18:26:14;7.80;49.60
15105;DHT22;7653;48.994;9.212;2022-12-20T18:28:45;7.80;50.80
15105;DHT22;7653;48.994;9.212;2022-12-20T18:31:15;7.80;50.60
15105;DHT22;7653;48.994;9.212;2022-12-20T18:33:40;7.70;51.00
15105;DHT22;7653;48.994;9.212;2022-12-20T18:36:14;7.70;52.00
15105;DHT22;7653;48.994;9.212;2022-12-20T18:38:42;7.60;53.70
15105;DHT22;7653;48.994;9.212;2022-12-20T18:41:12;7.60;52.80
15105;DHT22;7653;48.994;9.212;2022-12-20T18:43:38;7.70;52.60
15105;DHT22;7653;48.994;9.212;2022-12-20T18:46:04;7.70;52.10
15105;DHT22;7653;48.994;9.212;2022-12-20T18:48:31;7.70;52.50
15105;DHT22;7653;48.994;9.212;2022-12-20T18:51:08;7.80;52.00
15105;DHT22;7653;48.994;9.212;2022-12-20T18:53:36;7.90;51.50
15105;DHT22;7653;48.994;9.212;2022-12-20T18:56:03;7.90;50.60
15105;DHT22;7653;48.994;9.212;2022-12-20T18:58:30;7.90;49.80
15105;DHT22;7653;48.994;9.212;2022-12-20T19:00:57;7.90;49.60
15105;DHT22;7653;48.994;9.212;2022-12-20T19:03:26;7.90;49.60
15105;DHT22;7653;48.994;9.212;2022-12-20T19:05:53;7.80;49.60